Carnival Splendor — 3EUS — position and weather

sailwx.info

Track history (hours):
 
Tides and Currents Weather Stations Pressure Air Temp Water Temp Dewpoint Dewpoint Depression Visibility Wind Speed Wind Dir Waves Ship Positions

Carnival Splendor

Last reported at 2016-Jul-24 19:27 UTC. Time now 2016-Jul-27 23:04 UTC.
Position N 25°47' W 080°10'.

Length 289 m; draft 8.3 m.

Type: Ship. MMSI: 372808000.

Date/timePositionNaut miles runAvg speedWind from/ knotsBaromVisibWave heightAir tempDewpointWater temp
2016-Jul-24 19:27N 25°47' W 080°10'0 0.0
2016-Jul-24 18:30N 25°47' W 080°10'0 0.0
2016-Jul-24 17:26N 25°47' W 080°10'0 0.0
2016-Jul-24 16:32N 25°47' W 080°10'0 0.0
2016-Jul-24 15:32N 25°47' W 080°10'0 0.0
2016-Jul-24 14:07N 25°47' W 080°10'0 0.0
2016-Jul-24 13:31N 25°47' W 080°10'0 0.0
2016-Jul-24 11:30N 25°47' W 080°10'0 0.0
2016-Jul-24 10:26N 25°47' W 080°10'1 0.9
2016-Jul-24 09:33N 25°47' W 080°11'7 7.1
2016-Jul-24 08:33N 25°46' W 080°03'8 8.1
2016-Jul-24 07:33N 25°41' W 079°56'  
2016-Jul-17 01:27N 26°15' W 079°11'1617.5
2016-Jul-17 00:33N 26°07' W 079°26'1818.2
2016-Jul-16 23:33N 25°57' W 079°43'1818.2
2016-Jul-16 22:33N 25°49' W 080°01'9 8.9
2016-Jul-16 21:33N 25°47' W 080°11'1 0.5
2016-Jul-16 20:29N 25°47' W 080°10'0 0.0
2016-Jul-16 19:32N 25°47' W 080°10'0 0.0
2016-Jul-16 18:32N 25°47' W 080°10'0 0.0
2016-Jul-16 17:25N 25°47' W 080°10'0 0.0
2016-Jul-16 16:31N 25°47' W 080°10'0 0.0
2016-Jul-16 15:21N 25°47' W 080°10'0 0.0
2016-Jul-16 14:30N 25°47' W 080°10'0 0.0
2016-Jul-16 13:29N 25°47' W 080°10'0 0.0
2016-Jul-16 12:20N 25°47' W 080°10'0 0.0
2016-Jul-16 11:26N 25°47' W 080°10'0 0.0
2016-Jul-16 10:19N 25°47' W 080°10'0 0.0
2016-Jul-16 08:24N 25°47' W 080°10'0 0.0
2016-Jul-16 07:18N 25°47' W 080°10'0 0.0
2016-Jul-16 04:26N 25°47' W 080°10'2 1.7
2016-Jul-16 03:22N 25°46' W 080°09'8 9.7
2016-Jul-16 02:33N 25°45' W 079°60'49617.7
2016-Jul-14 22:33N 20°32' W 086°59'4 3.5
2016-Jul-14 21:32N 20°29' W 086°59'0 0.0
2016-Jul-14 20:33N 20°29' W 086°59'0 0.0
2016-Jul-14 19:33N 20°29' W 086°59'  
Track history (hours):
 
Tides and Currents Weather Stations Pressure Air Temp Water Temp Dewpoint Dewpoint Depression Visibility Wind Speed Wind Dir Waves Ship Positions

Carnival Splendor

Last reported at 2016-Jul-24 19:27 UTC. Time now 2016-Jul-27 23:04 UTC.
Position N 25°47' W 080°10'.

Length 289 m; draft 8.3 m.

Type: Ship. MMSI: 372808000.

Date/timePositionNaut miles runAvg speedWind from/ knotsBaromVisibWave heightAir tempDewpointWater temp
2016-Jul-24 19:27N 25°47' W 080°10'0 0.0
2016-Jul-24 18:30N 25°47' W 080°10'0 0.0
2016-Jul-24 17:26N 25°47' W 080°10'0 0.0
2016-Jul-24 16:32N 25°47' W 080°10'0 0.0
2016-Jul-24 15:32N 25°47' W 080°10'0 0.0
2016-Jul-24 14:07N 25°47' W 080°10'0 0.0
2016-Jul-24 13:31N 25°47' W 080°10'0 0.0
2016-Jul-24 11:30N 25°47' W 080°10'0 0.0
2016-Jul-24 10:26N 25°47' W 080°10'1 0.9
2016-Jul-24 09:33N 25°47' W 080°11'7 7.1
2016-Jul-24 08:33N 25°46' W 080°03'8 8.1
2016-Jul-24 07:33N 25°41' W 079°56'  
2016-Jul-17 01:27N 26°15' W 079°11'1617.5
2016-Jul-17 00:33N 26°07' W 079°26'1818.2
2016-Jul-16 23:33N 25°57' W 079°43'1818.2
2016-Jul-16 22:33N 25°49' W 080°01'9 8.9
2016-Jul-16 21:33N 25°47' W 080°11'1 0.5
2016-Jul-16 20:29N 25°47' W 080°10'0 0.0
2016-Jul-16 19:32N 25°47' W 080°10'0 0.0
2016-Jul-16 18:32N 25°47' W 080°10'0 0.0
2016-Jul-16 17:25N 25°47' W 080°10'0 0.0
2016-Jul-16 16:31N 25°47' W 080°10'0 0.0
2016-Jul-16 15:21N 25°47' W 080°10'0 0.0
2016-Jul-16 14:30N 25°47' W 080°10'0 0.0
2016-Jul-16 13:29N 25°47' W 080°10'0 0.0
2016-Jul-16 12:20N 25°47' W 080°10'0 0.0
2016-Jul-16 11:26N 25°47' W 080°10'0 0.0
2016-Jul-16 10:19N 25°47' W 080°10'0 0.0
2016-Jul-16 08:24N 25°47' W 080°10'0 0.0
2016-Jul-16 07:18N 25°47' W 080°10'0 0.0
2016-Jul-16 04:26N 25°47' W 080°10'2 1.7
2016-Jul-16 03:22N 25°46' W 080°09'8 9.7
2016-Jul-16 02:33N 25°45' W 079°60'49617.7
2016-Jul-14 22:33N 20°32' W 086°59'4 3.5
2016-Jul-14 21:32N 20°29' W 086°59'0 0.0
2016-Jul-14 20:33N 20°29' W 086°59'0 0.0
2016-Jul-14 19:33N 20°29' W 086°59'  

Dump ship's entire track history